sensor_id;sensor_type;location;lat;lon;timestamp;P1;durP1;ratioP1;P2;durP2;ratioP2
27796;SDS011;15177;50.844;4.412;2023-03-01T00:01:27;14.80;;;9.93;;
27796;SDS011;15177;50.844;4.412;2023-03-01T00:03:55;15.47;;;10.70;;
27796;SDS011;15177;50.844;4.412;2023-03-01T00:06:21;15.27;;;9.50;;
27796;SDS011;15177;50.844;4.412;2023-03-01T00:08:47;14.57;;;8.50;;
27796;SDS011;15177;50.844;4.412;2023-03-01T00:11:15;15.07;;;9.80;;
27796;SDS011;15177;50.844;4.412;2023-03-01T00:13:50;15.77;;;9.40;;
27796;SDS011;15177;50.844;4.412;2023-03-01T00:16:20;16.63;;;9.53;;
27796;SDS011;15177;50.844;4.412;2023-03-01T00:18:47;16.80;;;9.80;;
27796;SDS011;15177;50.844;4.412;2023-03-01T00:21:13;13.93;;;9.47;;
27796;SDS011;15177;50.844;4.412;2023-03-01T00:23:40;14.13;;;10.00;;
27796;SDS011;15177;50.844;4.412;2023-03-01T00:26:07;15.80;;;9.47;;
27796;SDS011;15177;50.844;4.412;2023-03-01T00:28:34;17.63;;;10.33;;
27796;SDS011;15177;50.844;4.412;2023-03-01T00:31:04;17.33;;;9.93;;
27796;SDS011;15177;50.844;4.412;2023-03-01T00:33:31;14.60;;;9.43;;
27796;SDS011;15177;50.844;4.412;2023-03-01T00:35:58;12.43;;;9.00;;
27796;SDS011;15177;50.844;4.412;2023-03-01T00:38:24;13.23;;;9.50;;
27796;SDS011;15177;50.844;4.412;2023-03-01T00:40:49;14.40;;;9.37;;
27796;SDS011;15177;50.844;4.412;2023-03-01T00:43:15;13.77;;;8.50;;
27796;SDS011;15177;50.844;4.412;2023-03-01T00:45:41;16.47;;;8.57;;
27796;SDS011;15177;50.844;4.412;2023-03-01T00:48:06;14.33;;;8.93;;
27796;SDS011;15177;50.844;4.412;2023-03-01T00:50:33;15.40;;;9.33;;
27796;SDS011;15177;50.844;4.412;2023-03-01T00:52:59;13.40;;;9.63;;
27796;SDS011;15177;50.844;4.412;2023-03-01T00:55:25;14.53;;;9.03;;
27796;SDS011;15177;50.844;4.412;2023-03-01T00:57:51;13.83;;;8.03;;
27796;SDS011;15177;50.844;4.412;2023-03-01T01:00:17;12.77;;;8.80;;
27796;SDS011;15177;50.844;4.412;2023-03-01T01:02:43;18.03;;;9.03;;
27796;SDS011;15177;50.844;4.412;2023-03-01T01:05:09;14.17;;;8.70;;
27796;SDS011;15177;50.844;4.412;2023-03-01T01:07:35;13.50;;;9.13;;
27796;SDS011;15177;50.844;4.412;2023-03-01T01:10:00;18.43;;;9.47;;
27796;SDS011;15177;50.844;4.412;2023-03-01T01:12:26;13.03;;;8.57;;
27796;SDS011;15177;50.844;4.412;2023-03-01T01:14:52;15.90;;;9.67;;
27796;SDS011;15177;50.844;4.412;2023-03-01T01:17:18;11.87;;;8.50;;
27796;SDS011;15177;50.844;4.412;2023-03-01T01:19:43;18.57;;;9.33;;
27796;SDS011;15177;50.844;4.412;2023-03-01T01:22:09;15.10;;;9.30;;
27796;SDS011;15177;50.844;4.412;2023-03-01T01:24:34;18.80;;;9.60;;
27796;SDS011;15177;50.844;4.412;2023-03-01T01:27:00;17.37;;;8.73;;
27796;SDS011;15177;50.844;4.412;2023-03-01T01:29:26;16.73;;;10.07;;
27796;SDS011;15177;50.844;4.412;2023-03-01T01:31:51;14.87;;;8.93;;
27796;SDS011;15177;50.844;4.412;2023-03-01T01:34:18;12.73;;;9.17;;
27796;SDS011;15177;50.844;4.412;2023-03-01T01:36:49;12.60;;;9.20;;
27796;SDS011;15177;50.844;4.412;2023-03-01T01:39:18;14.40;;;9.37;;
27796;SDS011;15177;50.844;4.412;2023-03-01T01:41:44;15.80;;;8.47;;
27796;SDS011;15177;50.844;4.412;2023-03-01T01:44:11;13.57;;;8.03;;
27796;SDS011;15177;50.844;4.412;2023-03-01T01:49:38;16.30;;;8.77;;
27796;SDS011;15177;50.844;4.412;2023-03-01T01:54:53;14.47;;;9.43;;
27796;SDS011;15177;50.844;4.412;2023-03-01T01:57:29;14.90;;;8.93;;
27796;SDS011;15177;50.844;4.412;2023-03-01T02:00:00;13.17;;;9.13;;
27796;SDS011;15177;50.844;4.412;2023-03-01T02:02:39;12.57;;;8.10;;
27796;SDS011;15177;50.844;4.412;2023-03-01T02:07:54;16.40;;;9.13;;
27796;SDS011;15177;50.844;4.412;2023-03-01T02:10:21;15.23;;;8.77;;
27796;SDS011;15177;50.844;4.412;2023-03-01T02:12:49;13.00;;;8.83;;
27796;SDS011;15177;50.844;4.412;2023-03-01T02:15:16;16.53;;;9.13;;
27796;SDS011;15177;50.844;4.412;2023-03-01T02:17:41;13.47;;;8.47;;
27796;SDS011;15177;50.844;4.412;2023-03-01T02:22:36;20.17;;;9.23;;
27796;SDS011;15177;50.844;4.412;2023-03-01T02:30:37;14.43;;;9.57;;
27796;SDS011;15177;50.844;4.412;2023-03-01T02:33:23;14.07;;;9.00;;
27796;SDS011;15177;50.844;4.412;2023-03-01T02:35:50;19.80;;;9.40;;
27796;SDS011;15177;50.844;4.412;2023-03-01T02:38:18;16.80;;;9.60;;
27796;SDS011;15177;50.844;4.412;2023-03-01T02:40:44;14.47;;;9.33;;
27796;SDS011;15177;50.844;4.412;2023-03-01T02:43:10;14.23;;;9.10;;
27796;SDS011;15177;50.844;4.412;2023-03-01T02:45:42;20.17;;;10.27;;
27796;SDS011;15177;50.844;4.412;2023-03-01T02:48:16;17.30;;;9.73;;
27796;SDS011;15177;50.844;4.412;2023-03-01T02:50:51;15.37;;;9.63;;
27796;SDS011;15177;50.844;4.412;2023-03-01T02:56:13;15.17;;;9.20;;
27796;SDS011;15177;50.844;4.412;2023-03-01T02:58:40;14.67;;;9.50;;
27796;SDS011;15177;50.844;4.412;2023-03-01T03:01:11;17.73;;;9.53;;
27796;SDS011;15177;50.844;4.412;2023-03-01T03:03:38;15.00;;;9.00;;
27796;SDS011;15177;50.844;4.412;2023-03-01T03:06:04;15.60;;;9.57;;
27796;SDS011;15177;50.844;4.412;2023-03-01T03:08:30;15.30;;;9.23;;
27796;SDS011;15177;50.844;4.412;2023-03-01T03:10:55;16.23;;;9.57;;
27796;SDS011;15177;50.844;4.412;2023-03-01T03:13:21;17.77;;;9.47;;
27796;SDS011;15177;50.844;4.412;2023-03-01T03:15:47;16.37;;;9.73;;
27796;SDS011;15177;50.844;4.412;2023-03-01T03:18:14;16.03;;;9.00;;
27796;SDS011;15177;50.844;4.412;2023-03-01T03:20:42;14.23;;;8.97;;
27796;SDS011;15177;50.844;4.412;2023-03-01T03:23:09;14.70;;;8.93;;
27796;SDS011;15177;50.844;4.412;2023-03-01T03:25:34;14.33;;;9.47;;
27796;SDS011;15177;50.844;4.412;2023-03-01T03:28:04;17.13;;;9.27;;
27796;SDS011;15177;50.844;4.412;2023-03-01T03:30:35;15.30;;;9.20;;
27796;SDS011;15177;50.844;4.412;2023-03-01T03:33:04;16.10;;;10.43;;
27796;SDS011;15177;50.844;4.412;2023-03-01T03:35:38;15.47;;;9.70;;
27796;SDS011;15177;50.844;4.412;2023-03-01T03:38:09;13.23;;;8.80;;
27796;SDS011;15177;50.844;4.412;2023-03-01T03:40:45;18.70;;;9.33;;
27796;SDS011;15177;50.844;4.412;2023-03-01T03:43:16;17.13;;;9.53;;
27796;SDS011;15177;50.844;4.412;2023-03-01T03:45:50;15.50;;;9.37;;
27796;SDS011;15177;50.844;4.412;2023-03-01T03:48:16;16.47;;;8.77;;
27796;SDS011;15177;50.844;4.412;2023-03-01T03:50:46;17.83;;;9.03;;
27796;SDS011;15177;50.844;4.412;2023-03-01T03:53:14;16.90;;;9.63;;
27796;SDS011;15177;50.844;4.412;2023-03-01T03:55:40;15.53;;;9.67;;
27796;SDS011;15177;50.844;4.412;2023-03-01T03:58:08;18.53;;;10.67;;
27796;SDS011;15177;50.844;4.412;2023-03-01T04:00:36;15.87;;;9.93;;
27796;SDS011;15177;50.844;4.412;2023-03-01T04:03:04;18.03;;;9.37;;
27796;SDS011;15177;50.844;4.412;2023-03-01T04:05:30;14.63;;;8.93;;
27796;SDS011;15177;50.844;4.412;2023-03-01T04:07:56;16.00;;;9.87;;
27796;SDS011;15177;50.844;4.412;2023-03-01T04:10:28;16.03;;;9.53;;
27796;SDS011;15177;50.844;4.412;2023-03-01T04:12:55;15.00;;;9.83;;
27796;SDS011;15177;50.844;4.412;2023-03-01T04:15:22;19.10;;;10.17;;
27796;SDS011;15177;50.844;4.412;2023-03-01T04:17:49;18.50;;;10.57;;
27796;SDS011;15177;50.844;4.412;2023-03-01T04:20:17;14.17;;;8.77;;
27796;SDS011;15177;50.844;4.412;2023-03-01T04:22:52;13.60;;;9.47;;
27796;SDS011;15177;50.844;4.412;2023-03-01T04:25:51;17.93;;;10.30;;
27796;SDS011;15177;50.844;4.412;2023-03-01T04:28:30;17.50;;;10.03;;
27796;SDS011;15177;50.844;4.412;2023-03-01T04:31:23;17.53;;;9.63;;
27796;SDS011;15177;50.844;4.412;2023-03-01T04:33:50;15.10;;;9.37;;
27796;SDS011;15177;50.844;4.412;2023-03-01T04:36:21;17.60;;;10.90;;
27796;SDS011;15177;50.844;4.412;2023-03-01T04:38:48;18.60;;;10.90;;
27796;SDS011;15177;50.844;4.412;2023-03-01T04:41:16;19.23;;;9.73;;
27796;SDS011;15177;50.844;4.412;2023-03-01T04:43:43;15.30;;;10.07;;
27796;SDS011;15177;50.844;4.412;2023-03-01T04:46:11;22.87;;;10.03;;
27796;SDS011;15177;50.844;4.412;2023-03-01T04:48:38;16.00;;;10.00;;
27796;SDS011;15177;50.844;4.412;2023-03-01T04:51:05;18.70;;;11.17;;
27796;SDS011;15177;50.844;4.412;2023-03-01T04:53:32;18.57;;;10.77;;
27796;SDS011;15177;50.844;4.412;2023-03-01T04:56:00;16.07;;;9.93;;
27796;SDS011;15177;50.844;4.412;2023-03-01T04:58:26;13.53;;;9.80;;
27796;SDS011;15177;50.844;4.412;2023-03-01T05:00:52;14.30;;;9.43;;
27796;SDS011;15177;50.844;4.412;2023-03-01T05:03:18;14.57;;;10.07;;
27796;SDS011;15177;50.844;4.412;2023-03-01T05:05:45;17.27;;;9.53;;
27796;SDS011;15177;50.844;4.412;2023-03-01T05:08:14;18.37;;;10.37;;
27796;SDS011;15177;50.844;4.412;2023-03-01T05:10:52;22.40;;;10.53;;
27796;SDS011;15177;50.844;4.412;2023-03-01T05:13:20;15.07;;;10.33;;
27796;SDS011;15177;50.844;4.412;2023-03-01T05:15:47;16.50;;;9.90;;
27796;SDS011;15177;50.844;4.412;2023-03-01T05:18:14;15.83;;;9.20;;
27796;SDS011;15177;50.844;4.412;2023-03-01T05:20:40;18.07;;;10.30;;
27796;SDS011;15177;50.844;4.412;2023-03-01T05:23:05;17.90;;;10.57;;
27796;SDS011;15177;50.844;4.412;2023-03-01T05:25:34;26.23;;;10.30;;
27796;SDS011;15177;50.844;4.412;2023-03-01T05:28:05;17.27;;;9.63;;
27796;SDS011;15177;50.844;4.412;2023-03-01T05:30:32;19.53;;;10.73;;
27796;SDS011;15177;50.844;4.412;2023-03-01T05:32:59;17.93;;;10.33;;
27796;SDS011;15177;50.844;4.412;2023-03-01T05:35:25;18.70;;;10.13;;
27796;SDS011;15177;50.844;4.412;2023-03-01T05:37:51;22.30;;;10.67;;
27796;SDS011;15177;50.844;4.412;2023-03-01T05:40:18;15.50;;;10.50;;
27796;SDS011;15177;50.844;4.412;2023-03-01T05:42:46;18.43;;;10.10;;
27796;SDS011;15177;50.844;4.412;2023-03-01T05:45:14;16.23;;;9.87;;
27796;SDS011;15177;50.844;4.412;2023-03-01T05:47:41;15.47;;;9.73;;
27796;SDS011;15177;50.844;4.412;2023-03-01T05:50:22;19.47;;;10.87;;
27796;SDS011;15177;50.844;4.412;2023-03-01T05:55:44;19.50;;;9.60;;
27796;SDS011;15177;50.844;4.412;2023-03-01T05:58:13;20.37;;;11.53;;
27796;SDS011;15177;50.844;4.412;2023-03-01T06:00:41;17.17;;;10.73;;
27796;SDS011;15177;50.844;4.412;2023-03-01T06:03:12;21.47;;;11.30;;
27796;SDS011;15177;50.844;4.412;2023-03-01T06:05:40;18.40;;;10.03;;
27796;SDS011;15177;50.844;4.412;2023-03-01T06:08:06;22.63;;;10.77;;
27796;SDS011;15177;50.844;4.412;2023-03-01T06:10:32;19.70;;;10.40;;
27796;SDS011;15177;50.844;4.412;2023-03-01T06:12:58;15.50;;;10.20;;
27796;SDS011;15177;50.844;4.412;2023-03-01T06:15:23;20.67;;;10.83;;
27796;SDS011;15177;50.844;4.412;2023-03-01T06:17:53;18.40;;;10.60;;
27796;SDS011;15177;50.844;4.412;2023-03-01T06:20:23;14.73;;;9.77;;
27796;SDS011;15177;50.844;4.412;2023-03-01T06:22:52;14.30;;;9.70;;
27796;SDS011;15177;50.844;4.412;2023-03-01T06:25:19;16.10;;;10.07;;
27796;SDS011;15177;50.844;4.412;2023-03-01T06:27:46;20.63;;;9.90;;
27796;SDS011;15177;50.844;4.412;2023-03-01T06:30:14;17.47;;;10.73;;
27796;SDS011;15177;50.844;4.412;2023-03-01T06:32:41;16.77;;;10.80;;
27796;SDS011;15177;50.844;4.412;2023-03-01T06:35:08;25.90;;;10.33;;
27796;SDS011;15177;50.844;4.412;2023-03-01T06:37:35;17.67;;;10.03;;
27796;SDS011;15177;50.844;4.412;2023-03-01T06:40:02;19.97;;;9.70;;
27796;SDS011;15177;50.844;4.412;2023-03-01T06:42:36;18.67;;;10.40;;
27796;SDS011;15177;50.844;4.412;2023-03-01T06:45:03;17.40;;;10.20;;
27796;SDS011;15177;50.844;4.412;2023-03-01T06:47:30;16.30;;;10.43;;
27796;SDS011;15177;50.844;4.412;2023-03-01T06:49:58;18.13;;;9.70;;
27796;SDS011;15177;50.844;4.412;2023-03-01T06:52:24;17.80;;;10.40;;
27796;SDS011;15177;50.844;4.412;2023-03-01T06:54:49;18.50;;;10.30;;
27796;SDS011;15177;50.844;4.412;2023-03-01T06:57:15;22.27;;;11.00;;
27796;SDS011;15177;50.844;4.412;2023-03-01T06:59:41;17.40;;;9.80;;
27796;SDS011;15177;50.844;4.412;2023-03-01T07:02:09;18.97;;;10.37;;
27796;SDS011;15177;50.844;4.412;2023-03-01T07:04:39;18.47;;;10.67;;
27796;SDS011;15177;50.844;4.412;2023-03-01T07:07:05;18.43;;;9.60;;
27796;SDS011;15177;50.844;4.412;2023-03-01T07:09:31;17.30;;;10.50;;
27796;SDS011;15177;50.844;4.412;2023-03-01T07:11:57;15.63;;;11.13;;
27796;SDS011;15177;50.844;4.412;2023-03-01T07:14:23;17.47;;;9.90;;
27796;SDS011;15177;50.844;4.412;2023-03-01T07:16:51;19.13;;;9.67;;
27796;SDS011;15177;50.844;4.412;2023-03-01T07:19:17;20.60;;;11.50;;
27796;SDS011;15177;50.844;4.412;2023-03-01T07:21:43;17.50;;;11.20;;
27796;SDS011;15177;50.844;4.412;2023-03-01T07:24:09;20.80;;;10.00;;
27796;SDS011;15177;50.844;4.412;2023-03-01T07:26:36;19.27;;;10.73;;
27796;SDS011;15177;50.844;4.412;2023-03-01T07:29:03;22.47;;;9.43;;
27796;SDS011;15177;50.844;4.412;2023-03-01T07:31:30;13.13;;;8.47;;
27796;SDS011;15177;50.844;4.412;2023-03-01T07:33:56;14.53;;;8.20;;
27796;SDS011;15177;50.844;4.412;2023-03-01T07:36:22;14.53;;;8.70;;
27796;SDS011;15177;50.844;4.412;2023-03-01T07:38:48;14.73;;;8.93;;
27796;SDS011;15177;50.844;4.412;2023-03-01T07:41:14;14.17;;;8.80;;
27796;SDS011;15177;50.844;4.412;2023-03-01T07:43:41;14.80;;;8.27;;
27796;SDS011;15177;50.844;4.412;2023-03-01T07:46:06;12.57;;;7.70;;
27796;SDS011;15177;50.844;4.412;2023-03-01T07:48:33;13.97;;;8.00;;
27796;SDS011;15177;50.844;4.412;2023-03-01T07:51:03;13.30;;;7.77;;
27796;SDS011;15177;50.844;4.412;2023-03-01T07:53:30;12.83;;;8.20;;
27796;SDS011;15177;50.844;4.412;2023-03-01T07:56:06;15.27;;;8.53;;
27796;SDS011;15177;50.844;4.412;2023-03-01T07:58:34;15.63;;;8.30;;
27796;SDS011;15177;50.844;4.412;2023-03-01T08:01:05;18.10;;;8.40;;
27796;SDS011;15177;50.844;4.412;2023-03-01T08:03:37;13.17;;;8.67;;
27796;SDS011;15177;50.844;4.412;2023-03-01T08:06:03;14.67;;;7.90;;
27796;SDS011;15177;50.844;4.412;2023-03-01T08:08:31;11.63;;;8.57;;
27796;SDS011;15177;50.844;4.412;2023-03-01T08:10:58;10.07;;;7.70;;
27796;SDS011;15177;50.844;4.412;2023-03-01T08:13:25;16.10;;;8.97;;
27796;SDS011;15177;50.844;4.412;2023-03-01T08:15:51;14.00;;;9.20;;
27796;SDS011;15177;50.844;4.412;2023-03-01T08:18:17;13.53;;;8.63;;
27796;SDS011;15177;50.844;4.412;2023-03-01T08:20:44;13.00;;;8.17;;
27796;SDS011;15177;50.844;4.412;2023-03-01T08:23:11;12.23;;;8.50;;
27796;SDS011;15177;50.844;4.412;2023-03-01T08:25:37;11.90;;;8.50;;
27796;SDS011;15177;50.844;4.412;2023-03-01T08:28:03;10.47;;;8.07;;
27796;SDS011;15177;50.844;4.412;2023-03-01T08:30:29;13.32;;;8.85;;
27796;SDS011;15177;50.844;4.412;2023-03-01T08:32:55;16.27;;;8.55;;
27796;SDS011;15177;50.844;4.412;2023-03-01T08:35:21;14.32;;;8.75;;
27796;SDS011;15177;50.844;4.412;2023-03-01T08:37:47;16.00;;;9.25;;
27796;SDS011;15177;50.844;4.412;2023-03-01T08:40:13;11.70;;;8.38;;
27796;SDS011;15177;50.844;4.412;2023-03-01T08:42:40;14.07;;;8.45;;
27796;SDS011;15177;50.844;4.412;2023-03-01T08:45:08;12.93;;;8.65;;
27796;SDS011;15177;50.844;4.412;2023-03-01T08:47:34;12.30;;;7.97;;
27796;SDS011;15177;50.844;4.412;2023-03-01T08:50:00;12.20;;;8.25;;
27796;SDS011;15177;50.844;4.412;2023-03-01T08:52:26;14.07;;;8.23;;
27796;SDS011;15177;50.844;4.412;2023-03-01T08:54:52;11.20;;;7.95;;
27796;SDS011;15177;50.844;4.412;2023-03-01T08:57:18;15.23;;;8.68;;
27796;SDS011;15177;50.844;4.412;2023-03-01T08:59:43;28.85;;;11.02;;
27796;SDS011;15177;50.844;4.412;2023-03-01T09:02:13;22.15;;;8.70;;
27796;SDS011;15177;50.844;4.412;2023-03-01T09:04:40;15.75;;;9.52;;
27796;SDS011;15177;50.844;4.412;2023-03-01T09:07:06;15.65;;;9.63;;
27796;SDS011;15177;50.844;4.412;2023-03-01T09:09:32;12.65;;;8.52;;
27796;SDS011;15177;50.844;4.412;2023-03-01T09:11:58;14.02;;;9.48;;
27796;SDS011;15177;50.844;4.412;2023-03-01T09:14:24;12.52;;;8.95;;
27796;SDS011;15177;50.844;4.412;2023-03-01T09:16:49;15.00;;;9.10;;
27796;SDS011;15177;50.844;4.412;2023-03-01T09:19:15;13.02;;;8.80;;
27796;SDS011;15177;50.844;4.412;2023-03-01T09:21:42;14.95;;;9.07;;
27796;SDS011;15177;50.844;4.412;2023-03-01T09:24:17;17.77;;;10.27;;
27796;SDS011;15177;50.844;4.412;2023-03-01T09:26:47;21.13;;;10.27;;
27796;SDS011;15177;50.844;4.412;2023-03-01T09:29:15;15.95;;;8.55;;
27796;SDS011;15177;50.844;4.412;2023-03-01T09:31:43;14.25;;;9.98;;
27796;SDS011;15177;50.844;4.412;2023-03-01T09:34:09;16.45;;;9.82;;
27796;SDS011;15177;50.844;4.412;2023-03-01T09:36:34;13.93;;;9.40;;
27796;SDS011;15177;50.844;4.412;2023-03-01T09:39:01;13.30;;;9.55;;
27796;SDS011;15177;50.844;4.412;2023-03-01T09:46:44;17.77;;;9.82;;
27796;SDS011;15177;50.844;4.412;2023-03-01T09:49:12;18.00;;;10.10;;
27796;SDS011;15177;50.844;4.412;2023-03-01T09:51:57;15.80;;;9.43;;
27796;SDS011;15177;50.844;4.412;2023-03-01T09:54:24;22.80;;;9.93;;
27796;SDS011;15177;50.844;4.412;2023-03-01T09:56:56;15.50;;;9.55;;
27796;SDS011;15177;50.844;4.412;2023-03-01T10:04:48;15.15;;;9.52;;
27796;SDS011;15177;50.844;4.412;2023-03-01T10:07:32;18.90;;;9.98;;
27796;SDS011;15177;50.844;4.412;2023-03-01T10:10:21;17.02;;;10.10;;
27796;SDS011;15177;50.844;4.412;2023-03-01T10:15:45;14.68;;;9.93;;
27796;SDS011;15177;50.844;4.412;2023-03-01T10:18:30;17.55;;;10.18;;
27796;SDS011;15177;50.844;4.412;2023-03-01T10:20:59;14.68;;;10.23;;
27796;SDS011;15177;50.844;4.412;2023-03-01T10:23:27;15.95;;;10.23;;
27796;SDS011;15177;50.844;4.412;2023-03-01T10:31:41;15.48;;;10.25;;
27796;SDS011;15177;50.844;4.412;2023-03-01T10:34:15;13.50;;;9.52;;
27796;SDS011;15177;50.844;4.412;2023-03-01T10:36:42;14.18;;;9.20;;
27796;SDS011;15177;50.844;4.412;2023-03-01T10:39:20;15.95;;;9.77;;
27796;SDS011;15177;50.844;4.412;2023-03-01T10:41:58;14.45;;;9.63;;
27796;SDS011;15177;50.844;4.412;2023-03-01T10:44:45;15.85;;;9.75;;
27796;SDS011;15177;50.844;4.412;2023-03-01T10:47:20;18.85;;;9.98;;
27796;SDS011;15177;50.844;4.412;2023-03-01T10:53:03;15.18;;;10.82;;
27796;SDS011;15177;50.844;4.412;2023-03-01T10:55:31;20.65;;;10.45;;
27796;SDS011;15177;50.844;4.412;2023-03-01T10:58:07;15.85;;;10.65;;
27796;SDS011;15177;50.844;4.412;2023-03-01T11:03:23;21.03;;;10.37;;
27796;SDS011;15177;50.844;4.412;2023-03-01T11:08:34;16.77;;;9.53;;
27796;SDS011;15177;50.844;4.412;2023-03-01T11:16:48;16.30;;;9.90;;
27796;SDS011;15177;50.844;4.412;2023-03-01T11:19:25;27.33;;;10.50;;
27796;SDS011;15177;50.844;4.412;2023-03-01T11:24:41;15.50;;;9.80;;
27796;SDS011;15177;50.844;4.412;2023-03-01T11:27:14;17.87;;;9.87;;
27796;SDS011;15177;50.844;4.412;2023-03-01T11:32:46;17.10;;;10.40;;
27796;SDS011;15177;50.844;4.412;2023-03-01T11:35:23;13.97;;;9.90;;
27796;SDS011;15177;50.844;4.412;2023-03-01T11:43:35;17.50;;;9.37;;
27796;SDS011;15177;50.844;4.412;2023-03-01T11:56:43;16.57;;;9.93;;
27796;SDS011;15177;50.844;4.412;2023-03-01T12:02:26;15.17;;;8.57;;
27796;SDS011;15177;50.844;4.412;2023-03-01T12:33:39;13.27;;;9.03;;
27796;SDS011;15177;50.844;4.412;2023-03-01T12:47:13;13.13;;;9.20;;
27796;SDS011;15177;50.844;4.412;2023-03-01T12:52:47;16.40;;;9.40;;
27796;SDS011;15177;50.844;4.412;2023-03-01T12:58:09;17.10;;;10.30;;
27796;SDS011;15177;50.844;4.412;2023-03-01T13:11:49;19.00;;;10.23;;
27796;SDS011;15177;50.844;4.412;2023-03-01T13:14:34;13.37;;;9.40;;
27796;SDS011;15177;50.844;4.412;2023-03-01T13:17:01;15.47;;;9.27;;
27796;SDS011;15177;50.844;4.412;2023-03-01T13:19:27;17.80;;;9.60;;
27796;SDS011;15177;50.844;4.412;2023-03-01T13:22:01;15.60;;;10.27;;
27796;SDS011;15177;50.844;4.412;2023-03-01T13:25:02;16.20;;;9.70;;
27796;SDS011;15177;50.844;4.412;2023-03-01T13:27:38;17.63;;;9.73;;
27796;SDS011;15177;50.844;4.412;2023-03-01T13:30:04;17.50;;;9.80;;
27796;SDS011;15177;50.844;4.412;2023-03-01T13:32:50;16.60;;;9.30;;
27796;SDS011;15177;50.844;4.412;2023-03-01T13:37:44;15.17;;;10.03;;
27796;SDS011;15177;50.844;4.412;2023-03-01T13:47:57;12.63;;;8.33;;
27796;SDS011;15177;50.844;4.412;2023-03-01T13:50:27;15.07;;;8.87;;
27796;SDS011;15177;50.844;4.412;2023-03-01T13:52:58;15.00;;;8.90;;
27796;SDS011;15177;50.844;4.412;2023-03-01T13:55:34;18.03;;;9.53;;
27796;SDS011;15177;50.844;4.412;2023-03-01T13:58:03;18.17;;;10.17;;
27796;SDS011;15177;50.844;4.412;2023-03-01T14:00:40;18.27;;;10.67;;
27796;SDS011;15177;50.844;4.412;2023-03-01T14:03:17;17.23;;;9.43;;
27796;SDS011;15177;50.844;4.412;2023-03-01T14:05:56;14.67;;;9.60;;
27796;SDS011;15177;50.844;4.412;2023-03-01T14:08:26;22.20;;;9.77;;
27796;SDS011;15177;50.844;4.412;2023-03-01T14:14:16;15.90;;;9.20;;
27796;SDS011;15177;50.844;4.412;2023-03-01T14:19:26;19.07;;;9.97;;
27796;SDS011;15177;50.844;4.412;2023-03-01T14:24:44;13.90;;;8.13;;
27796;SDS011;15177;50.844;4.412;2023-03-01T14:27:15;18.10;;;9.07;;
27796;SDS011;15177;50.844;4.412;2023-03-01T14:29:42;13.83;;;8.63;;
27796;SDS011;15177;50.844;4.412;2023-03-01T14:32:08;16.67;;;9.73;;
27796;SDS011;15177;50.844;4.412;2023-03-01T14:34:44;13.40;;;8.70;;
27796;SDS011;15177;50.844;4.412;2023-03-01T14:37:28;16.63;;;9.93;;
27796;SDS011;15177;50.844;4.412;2023-03-01T14:39:56;16.10;;;9.53;;
27796;SDS011;15177;50.844;4.412;2023-03-01T14:42:23;15.00;;;9.40;;
27796;SDS011;15177;50.844;4.412;2023-03-01T14:44:53;17.17;;;10.17;;
27796;SDS011;15177;50.844;4.412;2023-03-01T14:47:32;18.17;;;9.40;;
27796;SDS011;15177;50.844;4.412;2023-03-01T14:52:47;15.97;;;9.27;;
27796;SDS011;15177;50.844;4.412;2023-03-01T14:55:16;18.03;;;10.70;;
27796;SDS011;15177;50.844;4.412;2023-03-01T14:57:46;19.00;;;9.40;;
27796;SDS011;15177;50.844;4.412;2023-03-01T15:00:18;16.73;;;9.30;;
27796;SDS011;15177;50.844;4.412;2023-03-01T15:02:51;17.03;;;9.47;;
27796;SDS011;15177;50.844;4.412;2023-03-01T15:05:30;15.60;;;10.20;;
27796;SDS011;15177;50.844;4.412;2023-03-01T15:07:58;18.07;;;9.87;;
27796;SDS011;15177;50.844;4.412;2023-03-01T15:10:27;19.27;;;9.63;;
27796;SDS011;15177;50.844;4.412;2023-03-01T15:12:55;16.37;;;10.27;;
27796;SDS011;15177;50.844;4.412;2023-03-01T15:17:55;15.47;;;9.03;;
27796;SDS011;15177;50.844;4.412;2023-03-01T15:20:24;17.87;;;10.40;;
27796;SDS011;15177;50.844;4.412;2023-03-01T15:22:55;15.37;;;9.63;;
27796;SDS011;15177;50.844;4.412;2023-03-01T15:25:22;15.73;;;10.37;;
27796;SDS011;15177;50.844;4.412;2023-03-01T15:27:52;16.30;;;10.97;;
27796;SDS011;15177;50.844;4.412;2023-03-01T15:32:48;17.13;;;9.87;;
27796;SDS011;15177;50.844;4.412;2023-03-01T15:41:00;17.50;;;9.80;;
27796;SDS011;15177;50.844;4.412;2023-03-01T15:43:44;16.77;;;9.57;;
27796;SDS011;15177;50.844;4.412;2023-03-01T15:46:18;15.63;;;8.87;;
27796;SDS011;15177;50.844;4.412;2023-03-01T15:48:48;14.03;;;8.80;;
27796;SDS011;15177;50.844;4.412;2023-03-01T15:51:17;16.77;;;9.23;;
27796;SDS011;15177;50.844;4.412;2023-03-01T15:53:51;14.13;;;8.93;;
27796;SDS011;15177;50.844;4.412;2023-03-01T15:56:18;15.83;;;9.13;;
27796;SDS011;15177;50.844;4.412;2023-03-01T15:58:44;17.80;;;9.40;;
27796;SDS011;15177;50.844;4.412;2023-03-01T16:01:13;15.13;;;8.37;;
27796;SDS011;15177;50.844;4.412;2023-03-01T16:03:41;16.37;;;8.73;;
27796;SDS011;15177;50.844;4.412;2023-03-01T16:06:11;18.70;;;10.37;;
27796;SDS011;15177;50.844;4.412;2023-03-01T16:08:38;14.77;;;9.10;;
27796;SDS011;15177;50.844;4.412;2023-03-01T16:11:05;13.10;;;8.43;;
27796;SDS011;15177;50.844;4.412;2023-03-01T16:13:43;12.03;;;8.00;;
27796;SDS011;15177;50.844;4.412;2023-03-01T16:16:11;11.77;;;8.20;;
27796;SDS011;15177;50.844;4.412;2023-03-01T16:18:42;14.20;;;7.73;;
27796;SDS011;15177;50.844;4.412;2023-03-01T16:21:11;13.07;;;8.23;;
27796;SDS011;15177;50.844;4.412;2023-03-01T16:23:40;12.40;;;8.83;;
27796;SDS011;15177;50.844;4.412;2023-03-01T16:26:06;15.67;;;8.93;;
27796;SDS011;15177;50.844;4.412;2023-03-01T16:28:32;15.10;;;8.47;;
27796;SDS011;15177;50.844;4.412;2023-03-01T16:30:58;19.27;;;9.50;;
27796;SDS011;15177;50.844;4.412;2023-03-01T16:33:26;16.57;;;8.30;;
27796;SDS011;15177;50.844;4.412;2023-03-01T16:35:52;18.70;;;8.17;;
27796;SDS011;15177;50.844;4.412;2023-03-01T16:38:18;12.70;;;7.97;;
27796;SDS011;15177;50.844;4.412;2023-03-01T16:40:46;13.33;;;9.00;;
27796;SDS011;15177;50.844;4.412;2023-03-01T16:43:13;13.07;;;8.30;;
27796;SDS011;15177;50.844;4.412;2023-03-01T16:45:39;15.00;;;8.67;;
27796;SDS011;15177;50.844;4.412;2023-03-01T16:48:09;14.70;;;8.73;;
27796;SDS011;15177;50.844;4.412;2023-03-01T16:50:35;15.70;;;8.93;;
27796;SDS011;15177;50.844;4.412;2023-03-01T16:53:01;16.30;;;9.03;;
27796;SDS011;15177;50.844;4.412;2023-03-01T16:55:27;16.03;;;9.33;;
27796;SDS011;15177;50.844;4.412;2023-03-01T16:57:53;11.90;;;8.37;;
27796;SDS011;15177;50.844;4.412;2023-03-01T17:00:18;15.27;;;9.47;;
27796;SDS011;15177;50.844;4.412;2023-03-01T17:02:48;14.87;;;8.83;;
27796;SDS011;15177;50.844;4.412;2023-03-01T17:05:17;16.30;;;8.30;;
27796;SDS011;15177;50.844;4.412;2023-03-01T17:07:46;12.60;;;8.57;;
27796;SDS011;15177;50.844;4.412;2023-03-01T17:10:12;11.63;;;8.07;;
27796;SDS011;15177;50.844;4.412;2023-03-01T17:12:38;17.87;;;8.57;;
27796;SDS011;15177;50.844;4.412;2023-03-01T17:15:04;14.53;;;8.53;;
27796;SDS011;15177;50.844;4.412;2023-03-01T17:17:31;15.33;;;9.27;;
27796;SDS011;15177;50.844;4.412;2023-03-01T17:19:56;17.27;;;9.93;;
27796;SDS011;15177;50.844;4.412;2023-03-01T17:22:22;17.37;;;9.27;;
27796;SDS011;15177;50.844;4.412;2023-03-01T17:24:49;14.43;;;8.80;;
27796;SDS011;15177;50.844;4.412;2023-03-01T17:27:15;16.47;;;8.63;;
27796;SDS011;15177;50.844;4.412;2023-03-01T17:29:41;18.47;;;9.47;;
27796;SDS011;15177;50.844;4.412;2023-03-01T17:32:07;18.50;;;10.17;;